sensor_id;sensor_type;location;lat;lon;timestamp;P1;durP1;ratioP1;P2;durP2;ratioP2
72974;SDS011;61166;54.228;37.632;2023-08-31T00:02:11;969.92;;;399.98;;
72974;SDS011;61166;54.228;37.632;2023-08-31T00:04:37;971.90;;;404.10;;
72974;SDS011;61166;54.228;37.632;2023-08-31T00:07:04;973.28;;;402.90;;
72974;SDS011;61166;54.228;37.632;2023-08-31T00:09:30;981.15;;;409.38;;
72974;SDS011;61166;54.228;37.632;2023-08-31T00:11:57;999.40;;;417.60;;
72974;SDS011;61166;54.228;37.632;2023-08-31T00:14:24;1001.33;;;417.17;;
72974;SDS011;61166;54.228;37.632;2023-08-31T00:16:50;1007.72;;;418.85;;
72974;SDS011;61166;54.228;37.632;2023-08-31T00:19:17;989.50;;;414.55;;
72974;SDS011;61166;54.228;37.632;2023-08-31T00:21:43;994.63;;;414.13;;
72974;SDS011;61166;54.228;37.632;2023-08-31T00:24:10;994.03;;;414.00;;
72974;SDS011;61166;54.228;37.632;2023-08-31T00:26:36;1016.97;;;428.50;;
72974;SDS011;61166;54.228;37.632;2023-08-31T00:29:03;989.35;;;413.40;;
72974;SDS011;61166;54.228;37.632;2023-08-31T00:31:29;985.25;;;412.85;;
72974;SDS011;61166;54.228;37.632;2023-08-31T00:33:56;989.97;;;408.60;;
72974;SDS011;61166;54.228;37.632;2023-08-31T00:36:22;976.17;;;405.47;;
72974;SDS011;61166;54.228;37.632;2023-08-31T00:38:48;978.67;;;407.52;;
72974;SDS011;61166;54.228;37.632;2023-08-31T00:41:15;990.15;;;417.25;;
72974;SDS011;61166;54.228;37.632;2023-08-31T00:43:41;994.72;;;411.08;;
72974;SDS011;61166;54.228;37.632;2023-08-31T00:46:08;1014.75;;;424.35;;
72974;SDS011;61166;54.228;37.632;2023-08-31T00:48:34;1056.23;;;439.10;;
72974;SDS011;61166;54.228;37.632;2023-08-31T00:51:01;1060.00;;;445.38;;
72974;SDS011;61166;54.228;37.632;2023-08-31T00:53:27;1072.57;;;450.42;;
72974;SDS011;61166;54.228;37.632;2023-08-31T00:55:54;1018.42;;;426.63;;
72974;SDS011;61166;54.228;37.632;2023-08-31T00:58:20;1012.75;;;426.52;;
72974;SDS011;61166;54.228;37.632;2023-08-31T01:01:05;1024.30;;;434.43;;
72974;SDS011;61166;54.228;37.632;2023-08-31T01:08:50;1029.40;;;432.80;;
72974;SDS011;61166;54.228;37.632;2023-08-31T01:11:21;1017.92;;;426.63;;
72974;SDS011;61166;54.228;37.632;2023-08-31T01:13:55;1028.30;;;434.70;;
72974;SDS011;61166;54.228;37.632;2023-08-31T01:16:24;1018.83;;;427.38;;
72974;SDS011;61166;54.228;37.632;2023-08-31T01:18:50;978.92;;;411.02;;
72974;SDS011;61166;54.228;37.632;2023-08-31T01:21:20;971.38;;;408.20;;
72974;SDS011;61166;54.228;37.632;2023-08-31T01:23:53;964.35;;;405.77;;
72974;SDS011;61166;54.228;37.632;2023-08-31T01:26:21;963.27;;;405.37;;
72974;SDS011;61166;54.228;37.632;2023-08-31T01:28:48;961.42;;;407.58;;
72974;SDS011;61166;54.228;37.632;2023-08-31T01:31:15;965.42;;;406.05;;
72974;SDS011;61166;54.228;37.632;2023-08-31T01:33:41;965.08;;;405.95;;
72974;SDS011;61166;54.228;37.632;2023-08-31T01:36:10;969.22;;;404.40;;
72974;SDS011;61166;54.228;37.632;2023-08-31T01:38:38;954.00;;;397.67;;
72974;SDS011;61166;54.228;37.632;2023-08-31T01:41:07;966.80;;;406.90;;
72974;SDS011;61166;54.228;37.632;2023-08-31T01:43:33;958.17;;;405.58;;
72974;SDS011;61166;54.228;37.632;2023-08-31T01:46:01;959.03;;;407.42;;
72974;SDS011;61166;54.228;37.632;2023-08-31T01:48:27;965.45;;;409.40;;
72974;SDS011;61166;54.228;37.632;2023-08-31T01:50:55;954.57;;;401.10;;
72974;SDS011;61166;54.228;37.632;2023-08-31T01:53:21;956.08;;;404.48;;
72974;SDS011;61166;54.228;37.632;2023-08-31T01:55:48;963.30;;;411.25;;
72974;SDS011;61166;54.228;37.632;2023-08-31T01:58:14;948.90;;;399.27;;
72974;SDS011;61166;54.228;37.632;2023-08-31T02:00:41;951.63;;;401.42;;
72974;SDS011;61166;54.228;37.632;2023-08-31T02:03:07;964.60;;;406.40;;
72974;SDS011;61166;54.228;37.632;2023-08-31T02:05:34;973.20;;;410.67;;
72974;SDS011;61166;54.228;37.632;2023-08-31T02:08:00;972.00;;;408.25;;
72974;SDS011;61166;54.228;37.632;2023-08-31T02:10:27;957.47;;;402.40;;
72974;SDS011;61166;54.228;37.632;2023-08-31T02:12:53;960.33;;;404.58;;
72974;SDS011;61166;54.228;37.632;2023-08-31T02:15:19;972.67;;;415.37;;
72974;SDS011;61166;54.228;37.632;2023-08-31T02:17:46;958.95;;;403.38;;
72974;SDS011;61166;54.228;37.632;2023-08-31T02:20:12;965.17;;;408.70;;
72974;SDS011;61166;54.228;37.632;2023-08-31T02:22:39;966.00;;;408.30;;
72974;SDS011;61166;54.228;37.632;2023-08-31T02:25:05;952.17;;;403.98;;
72974;SDS011;61166;54.228;37.632;2023-08-31T02:27:32;956.70;;;404.67;;
72974;SDS011;61166;54.228;37.632;2023-08-31T02:29:58;953.63;;;402.50;;
72974;SDS011;61166;54.228;37.632;2023-08-31T02:32:25;960.45;;;410.48;;
72974;SDS011;61166;54.228;37.632;2023-08-31T02:34:51;956.25;;;406.80;;
72974;SDS011;61166;54.228;37.632;2023-08-31T02:37:18;962.88;;;407.80;;
72974;SDS011;61166;54.228;37.632;2023-08-31T02:39:44;958.37;;;405.43;;
72974;SDS011;61166;54.228;37.632;2023-08-31T02:42:11;967.80;;;409.33;;
72974;SDS011;61166;54.228;37.632;2023-08-31T02:44:37;962.40;;;409.30;;
72974;SDS011;61166;54.228;37.632;2023-08-31T02:47:04;966.38;;;406.17;;
72974;SDS011;61166;54.228;37.632;2023-08-31T02:49:30;976.08;;;413.63;;
72974;SDS011;61166;54.228;37.632;2023-08-31T02:51:56;987.13;;;424.07;;
72974;SDS011;61166;54.228;37.632;2023-08-31T02:54:23;974.60;;;413.17;;
72974;SDS011;61166;54.228;37.632;2023-08-31T02:56:49;993.50;;;421.05;;
72974;SDS011;61166;54.228;37.632;2023-08-31T02:59:16;996.50;;;420.65;;
72974;SDS011;61166;54.228;37.632;2023-08-31T03:01:42;1003.58;;;425.15;;
72974;SDS011;61166;54.228;37.632;2023-08-31T03:04:09;1002.33;;;420.57;;
72974;SDS011;61166;54.228;37.632;2023-08-31T03:06:35;1001.20;;;419.35;;
72974;SDS011;61166;54.228;37.632;2023-08-31T03:09:02;1007.63;;;426.95;;
72974;SDS011;61166;54.228;37.632;2023-08-31T03:11:28;1010.63;;;429.13;;
72974;SDS011;61166;54.228;37.632;2023-08-31T03:13:56;1012.83;;;423.17;;
72974;SDS011;61166;54.228;37.632;2023-08-31T03:16:22;1016.03;;;422.63;;
72974;SDS011;61166;54.228;37.632;2023-08-31T03:18:49;1033.18;;;439.10;;
72974;SDS011;61166;54.228;37.632;2023-08-31T03:21:15;1027.90;;;426.27;;
72974;SDS011;61166;54.228;37.632;2023-08-31T03:23:42;1031.47;;;423.10;;
72974;SDS011;61166;54.228;37.632;2023-08-31T03:26:08;1045.22;;;427.17;;
72974;SDS011;61166;54.228;37.632;2023-08-31T03:28:35;1066.47;;;439.43;;
72974;SDS011;61166;54.228;37.632;2023-08-31T03:31:01;1068.00;;;434.95;;
72974;SDS011;61166;54.228;37.632;2023-08-31T03:33:28;1067.10;;;434.40;;
72974;SDS011;61166;54.228;37.632;2023-08-31T03:35:59;1081.45;;;439.17;;
72974;SDS011;61166;54.228;37.632;2023-08-31T03:38:25;1078.43;;;430.77;;
72974;SDS011;61166;54.228;37.632;2023-08-31T03:40:53;1076.13;;;431.00;;
72974;SDS011;61166;54.228;37.632;2023-08-31T03:43:19;1086.18;;;433.23;;
72974;SDS011;61166;54.228;37.632;2023-08-31T03:45:45;1105.82;;;438.70;;
72974;SDS011;61166;54.228;37.632;2023-08-31T03:48:12;1112.75;;;438.17;;
72974;SDS011;61166;54.228;37.632;2023-08-31T03:50:38;1112.43;;;442.88;;
72974;SDS011;61166;54.228;37.632;2023-08-31T03:53:05;1108.43;;;429.33;;
72974;SDS011;61166;54.228;37.632;2023-08-31T03:55:31;1109.95;;;437.65;;
72974;SDS011;61166;54.228;37.632;2023-08-31T03:57:58;1107.40;;;426.23;;
72974;SDS011;61166;54.228;37.632;2023-08-31T04:00:24;1111.68;;;425.70;;
72974;SDS011;61166;54.228;37.632;2023-08-31T04:02:51;1116.15;;;427.55;;
72974;SDS011;61166;54.228;37.632;2023-08-31T04:05:17;1122.67;;;429.00;;
72974;SDS011;61166;54.228;37.632;2023-08-31T04:07:44;1122.13;;;427.52;;
72974;SDS011;61166;54.228;37.632;2023-08-31T04:10:10;1136.20;;;430.95;;
72974;SDS011;61166;54.228;37.632;2023-08-31T04:12:37;1142.13;;;429.92;;
72974;SDS011;61166;54.228;37.632;2023-08-31T04:15:03;1140.65;;;426.27;;
72974;SDS011;61166;54.228;37.632;2023-08-31T04:17:31;1150.87;;;434.50;;
72974;SDS011;61166;54.228;37.632;2023-08-31T04:19:57;1156.45;;;431.88;;
72974;SDS011;61166;54.228;37.632;2023-08-31T04:22:24;1163.07;;;440.88;;
72974;SDS011;61166;54.228;37.632;2023-08-31T04:24:51;1181.28;;;442.48;;
72974;SDS011;61166;54.228;37.632;2023-08-31T04:27:18;1192.95;;;450.15;;
72974;SDS011;61166;54.228;37.632;2023-08-31T04:29:44;1195.97;;;444.27;;
72974;SDS011;61166;54.228;37.632;2023-08-31T04:32:10;1201.72;;;448.00;;
72974;SDS011;61166;54.228;37.632;2023-08-31T04:34:37;1196.82;;;449.08;;
72974;SDS011;61166;54.228;37.632;2023-08-31T04:37:03;1197.60;;;444.85;;
72974;SDS011;61166;54.228;37.632;2023-08-31T04:39:30;1208.18;;;448.83;;
72974;SDS011;61166;54.228;37.632;2023-08-31T04:41:56;1209.67;;;444.63;;
72974;SDS011;61166;54.228;37.632;2023-08-31T04:44:22;1221.82;;;450.38;;
72974;SDS011;61166;54.228;37.632;2023-08-31T04:46:49;1227.97;;;462.75;;
72974;SDS011;61166;54.228;37.632;2023-08-31T04:49:15;1215.65;;;443.75;;
72974;SDS011;61166;54.228;37.632;2023-08-31T04:51:43;1219.35;;;444.92;;
72974;SDS011;61166;54.228;37.632;2023-08-31T04:54:10;1262.83;;;466.33;;
72974;SDS011;61166;54.228;37.632;2023-08-31T04:56:38;1255.93;;;461.73;;
72974;SDS011;61166;54.228;37.632;2023-08-31T04:59:04;1258.40;;;467.55;;
72974;SDS011;61166;54.228;37.632;2023-08-31T05:01:31;1271.72;;;462.38;;
72974;SDS011;61166;54.228;37.632;2023-08-31T05:03:57;1254.32;;;457.00;;
72974;SDS011;61166;54.228;37.632;2023-08-31T05:06:24;1260.60;;;462.13;;
72974;SDS011;61166;54.228;37.632;2023-08-31T05:08:50;1264.07;;;464.73;;
72974;SDS011;61166;54.228;37.632;2023-08-31T05:11:17;1251.63;;;463.70;;
72974;SDS011;61166;54.228;37.632;2023-08-31T05:13:43;1274.25;;;466.23;;
72974;SDS011;61166;54.228;37.632;2023-08-31T05:16:09;1291.07;;;483.20;;
72974;SDS011;61166;54.228;37.632;2023-08-31T05:18:37;1281.93;;;476.63;;
72974;SDS011;61166;54.228;37.632;2023-08-31T05:21:04;1298.22;;;485.42;;
72974;SDS011;61166;54.228;37.632;2023-08-31T05:23:30;1298.45;;;483.70;;
72974;SDS011;61166;54.228;37.632;2023-08-31T05:25:57;1313.72;;;487.70;;
72974;SDS011;61166;54.228;37.632;2023-08-31T05:28:24;1323.45;;;498.98;;
72974;SDS011;61166;54.228;37.632;2023-08-31T05:30:50;1311.00;;;480.87;;
72974;SDS011;61166;54.228;37.632;2023-08-31T05:33:17;1311.15;;;484.00;;
72974;SDS011;61166;54.228;37.632;2023-08-31T05:35:44;1314.60;;;488.27;;
72974;SDS011;61166;54.228;37.632;2023-08-31T05:38:11;1341.68;;;501.38;;
72974;SDS011;61166;54.228;37.632;2023-08-31T05:40:37;1365.13;;;509.05;;
72974;SDS011;61166;54.228;37.632;2023-08-31T05:43:04;1367.60;;;505.57;;
72974;SDS011;61166;54.228;37.632;2023-08-31T05:45:33;1388.15;;;517.92;;
72974;SDS011;61166;54.228;37.632;2023-08-31T05:48:00;1415.63;;;526.67;;
72974;SDS011;61166;54.228;37.632;2023-08-31T05:50:27;1397.95;;;515.50;;
72974;SDS011;61166;54.228;37.632;2023-08-31T05:52:54;1396.93;;;523.50;;
72974;SDS011;61166;54.228;37.632;2023-08-31T05:55:20;1419.73;;;532.53;;
72974;SDS011;61166;54.228;37.632;2023-08-31T05:57:47;1378.07;;;512.95;;
72974;SDS011;61166;54.228;37.632;2023-08-31T06:00:13;1377.05;;;505.25;;
72974;SDS011;61166;54.228;37.632;2023-08-31T06:02:40;1443.60;;;540.03;;
72974;SDS011;61166;54.228;37.632;2023-08-31T06:05:06;1435.03;;;539.45;;
72974;SDS011;61166;54.228;37.632;2023-08-31T06:07:33;1415.70;;;527.17;;
72974;SDS011;61166;54.228;37.632;2023-08-31T06:10:00;1413.22;;;530.28;;
72974;SDS011;61166;54.228;37.632;2023-08-31T06:12:26;1420.32;;;532.75;;
72974;SDS011;61166;54.228;37.632;2023-08-31T06:14:52;1421.45;;;530.10;;
72974;SDS011;61166;54.228;37.632;2023-08-31T06:17:19;1415.13;;;524.05;;
72974;SDS011;61166;54.228;37.632;2023-08-31T06:19:45;1418.80;;;525.40;;
72974;SDS011;61166;54.228;37.632;2023-08-31T06:22:12;1423.13;;;526.72;;
72974;SDS011;61166;54.228;37.632;2023-08-31T06:24:38;1385.35;;;504.95;;
72974;SDS011;61166;54.228;37.632;2023-08-31T06:27:04;1295.00;;;468.55;;
72974;SDS011;61166;54.228;37.632;2023-08-31T06:29:31;1328.38;;;481.17;;
72974;SDS011;61166;54.228;37.632;2023-08-31T06:31:57;1286.87;;;461.40;;
72974;SDS011;61166;54.228;37.632;2023-08-31T06:34:24;1393.47;;;511.33;;
72974;SDS011;61166;54.228;37.632;2023-08-31T06:36:50;1283.15;;;463.27;;
72974;SDS011;61166;54.228;37.632;2023-08-31T06:39:17;1273.50;;;459.58;;
72974;SDS011;61166;54.228;37.632;2023-08-31T06:41:43;1278.10;;;459.25;;
72974;SDS011;61166;54.228;37.632;2023-08-31T06:44:10;1287.87;;;465.87;;
72974;SDS011;61166;54.228;37.632;2023-08-31T06:46:36;1298.60;;;466.75;;
72974;SDS011;61166;54.228;37.632;2023-08-31T06:49:03;1296.47;;;473.02;;
72974;SDS011;61166;54.228;37.632;2023-08-31T06:51:30;1332.47;;;483.15;;
72974;SDS011;61166;54.228;37.632;2023-08-31T06:53:57;1305.68;;;471.25;;
72974;SDS011;61166;54.228;37.632;2023-08-31T06:56:23;1310.27;;;466.73;;
72974;SDS011;61166;54.228;37.632;2023-08-31T06:58:50;1270.60;;;451.55;;
72974;SDS011;61166;54.228;37.632;2023-08-31T07:01:16;1240.63;;;438.95;;
72974;SDS011;61166;54.228;37.632;2023-08-31T07:03:43;1255.63;;;443.77;;
72974;SDS011;61166;54.228;37.632;2023-08-31T07:06:09;1236.10;;;431.85;;
72974;SDS011;61166;54.228;37.632;2023-08-31T07:08:36;1221.87;;;426.73;;
72974;SDS011;61166;54.228;37.632;2023-08-31T07:11:02;1243.88;;;434.75;;
72974;SDS011;61166;54.228;37.632;2023-08-31T07:13:28;1298.30;;;465.38;;
72974;SDS011;61166;54.228;37.632;2023-08-31T07:15:55;1286.50;;;453.45;;
72974;SDS011;61166;54.228;37.632;2023-08-31T07:18:21;1299.55;;;463.73;;
72974;SDS011;61166;54.228;37.632;2023-08-31T07:20:48;1290.57;;;456.63;;
72974;SDS011;61166;54.228;37.632;2023-08-31T07:23:15;1307.20;;;463.63;;
72974;SDS011;61166;54.228;37.632;2023-08-31T07:25:41;1306.22;;;464.30;;
72974;SDS011;61166;54.228;37.632;2023-08-31T07:28:07;1291.20;;;458.95;;
72974;SDS011;61166;54.228;37.632;2023-08-31T07:30:34;1291.05;;;458.73;;
72974;SDS011;61166;54.228;37.632;2023-08-31T07:33:00;1292.33;;;455.93;;
72974;SDS011;61166;54.228;37.632;2023-08-31T07:35:29;1301.05;;;459.77;;
72974;SDS011;61166;54.228;37.632;2023-08-31T07:37:56;1291.00;;;452.55;;
72974;SDS011;61166;54.228;37.632;2023-08-31T07:40:22;1284.95;;;455.60;;
72974;SDS011;61166;54.228;37.632;2023-08-31T07:42:49;1284.32;;;453.67;;
72974;SDS011;61166;54.228;37.632;2023-08-31T07:45:15;1277.80;;;446.97;;
72974;SDS011;61166;54.228;37.632;2023-08-31T07:47:41;1278.57;;;451.27;;
72974;SDS011;61166;54.228;37.632;2023-08-31T07:50:08;1274.40;;;447.35;;
72974;SDS011;61166;54.228;37.632;2023-08-31T07:52:35;1273.85;;;449.48;;
72974;SDS011;61166;54.228;37.632;2023-08-31T07:55:01;1271.13;;;448.33;;
72974;SDS011;61166;54.228;37.632;2023-08-31T07:57:29;1275.93;;;447.43;;
72974;SDS011;61166;54.228;37.632;2023-08-31T07:59:55;1281.32;;;447.67;;
72974;SDS011;61166;54.228;37.632;2023-08-31T08:02:22;1272.53;;;448.95;;
72974;SDS011;61166;54.228;37.632;2023-08-31T08:04:49;1269.35;;;437.33;;
72974;SDS011;61166;54.228;37.632;2023-08-31T08:07:15;1247.10;;;430.45;;
72974;SDS011;61166;54.228;37.632;2023-08-31T08:09:42;1220.30;;;422.10;;
72974;SDS011;61166;54.228;37.632;2023-08-31T08:12:09;1219.57;;;417.95;;
72974;SDS011;61166;54.228;37.632;2023-08-31T08:14:35;1225.90;;;426.27;;
72974;SDS011;61166;54.228;37.632;2023-08-31T08:17:02;1226.57;;;421.33;;
72974;SDS011;61166;54.228;37.632;2023-08-31T08:19:28;1219.45;;;420.33;;
72974;SDS011;61166;54.228;37.632;2023-08-31T08:21:55;1223.03;;;421.60;;
72974;SDS011;61166;54.228;37.632;2023-08-31T08:24:21;1213.13;;;414.65;;
72974;SDS011;61166;54.228;37.632;2023-08-31T08:26:47;1213.53;;;424.55;;
72974;SDS011;61166;54.228;37.632;2023-08-31T08:29:14;1219.68;;;436.17;;
72974;SDS011;61166;54.228;37.632;2023-08-31T08:31:41;1217.15;;;420.70;;
72974;SDS011;61166;54.228;37.632;2023-08-31T08:34:07;1160.63;;;397.33;;
72974;SDS011;61166;54.228;37.632;2023-08-31T08:36:34;1214.35;;;418.25;;
72974;SDS011;61166;54.228;37.632;2023-08-31T08:39:00;1232.55;;;424.38;;
72974;SDS011;61166;54.228;37.632;2023-08-31T08:41:27;1230.20;;;425.83;;
72974;SDS011;61166;54.228;37.632;2023-08-31T08:43:55;1234.50;;;427.38;;
72974;SDS011;61166;54.228;37.632;2023-08-31T08:46:22;1222.53;;;422.70;;
72974;SDS011;61166;54.228;37.632;2023-08-31T08:48:49;1220.90;;;417.88;;
72974;SDS011;61166;54.228;37.632;2023-08-31T08:51:16;1232.57;;;423.48;;
72974;SDS011;61166;54.228;37.632;2023-08-31T08:53:43;1222.60;;;421.15;;
72974;SDS011;61166;54.228;37.632;2023-08-31T08:56:09;1223.28;;;423.20;;
72974;SDS011;61166;54.228;37.632;2023-08-31T08:58:37;1219.37;;;420.53;;
72974;SDS011;61166;54.228;37.632;2023-08-31T09:01:04;1218.47;;;416.35;;
72974;SDS011;61166;54.228;37.632;2023-08-31T09:03:34;1225.75;;;427.33;;
72974;SDS011;61166;54.228;37.632;2023-08-31T09:06:00;1229.43;;;433.73;;
72974;SDS011;61166;54.228;37.632;2023-08-31T09:08:27;1215.43;;;419.92;;
72974;SDS011;61166;54.228;37.632;2023-08-31T09:10:56;1201.40;;;412.70;;
72974;SDS011;61166;54.228;37.632;2023-08-31T09:13:27;1195.18;;;407.92;;
72974;SDS011;61166;54.228;37.632;2023-08-31T09:15:54;1208.13;;;414.70;;
72974;SDS011;61166;54.228;37.632;2023-08-31T09:20:50;1209.80;;;409.25;;
72974;SDS011;61166;54.228;37.632;2023-08-31T09:23:17;1214.73;;;414.00;;
72974;SDS011;61166;54.228;37.632;2023-08-31T09:25:50;1245.30;;;426.38;;
72974;SDS011;61166;54.228;37.632;2023-08-31T09:28:18;1238.25;;;427.88;;
72974;SDS011;61166;54.228;37.632;2023-08-31T09:30:48;1235.07;;;423.58;;
72974;SDS011;61166;54.228;37.632;2023-08-31T09:33:16;1226.38;;;422.90;;
72974;SDS011;61166;54.228;37.632;2023-08-31T09:35:50;1233.87;;;429.03;;
72974;SDS011;61166;54.228;37.632;2023-08-31T09:38:16;1233.97;;;422.45;;
72974;SDS011;61166;54.228;37.632;2023-08-31T09:40:43;1214.68;;;416.85;;
72974;SDS011;61166;54.228;37.632;2023-08-31T09:43:12;1205.45;;;410.48;;
72974;SDS011;61166;54.228;37.632;2023-08-31T09:45:39;1203.18;;;407.83;;
72974;SDS011;61166;54.228;37.632;2023-08-31T09:48:11;1107.23;;;378.17;;
72974;SDS011;61166;54.228;37.632;2023-08-31T09:50:40;1046.13;;;358.52;;
72974;SDS011;61166;54.228;37.632;2023-08-31T09:53:09;1029.82;;;355.73;;
72974;SDS011;61166;54.228;37.632;2023-08-31T09:55:38;1031.75;;;353.10;;
72974;SDS011;61166;54.228;37.632;2023-08-31T09:58:05;1047.20;;;356.65;;
72974;SDS011;61166;54.228;37.632;2023-08-31T10:00:41;1097.30;;;371.30;;
72974;SDS011;61166;54.228;37.632;2023-08-31T10:03:08;1110.72;;;376.77;;
72974;SDS011;61166;54.228;37.632;2023-08-31T10:05:35;1114.95;;;378.52;;
72974;SDS011;61166;54.228;37.632;2023-08-31T10:08:02;1161.93;;;389.42;;
72974;SDS011;61166;54.228;37.632;2023-08-31T10:10:28;1142.47;;;383.80;;
72974;SDS011;61166;54.228;37.632;2023-08-31T10:12:55;1143.23;;;383.33;;
72974;SDS011;61166;54.228;37.632;2023-08-31T10:15:22;1139.28;;;382.83;;
72974;SDS011;61166;54.228;37.632;2023-08-31T10:17:48;1147.97;;;387.50;;
72974;SDS011;61166;54.228;37.632;2023-08-31T10:20:16;1145.68;;;385.58;;
72974;SDS011;61166;54.228;37.632;2023-08-31T10:22:43;1147.07;;;386.23;;
72974;SDS011;61166;54.228;37.632;2023-08-31T10:25:10;1143.83;;;384.97;;
72974;SDS011;61166;54.228;37.632;2023-08-31T10:27:40;1150.13;;;387.50;;
72974;SDS011;61166;54.228;37.632;2023-08-31T10:36:09;1145.60;;;386.25;;
72974;SDS011;61166;54.228;37.632;2023-08-31T10:38:27;1142.70;;;387.53;;
72974;SDS011;61166;54.228;37.632;2023-08-31T10:46:18;1184.57;;;404.25;;
72974;SDS011;61166;54.228;37.632;2023-08-31T10:48:53;1175.70;;;399.00;;
72974;SDS011;61166;54.228;37.632;2023-08-31T10:51:23;1165.53;;;396.27;;
72974;SDS011;61166;54.228;37.632;2023-08-31T10:53:50;1184.07;;;403.05;;
72974;SDS011;61166;54.228;37.632;2023-08-31T10:56:17;1204.07;;;412.23;;
72974;SDS011;61166;54.228;37.632;2023-08-31T10:59:00;1210.32;;;417.50;;
72974;SDS011;61166;54.228;37.632;2023-08-31T11:04:12;1199.43;;;409.13;;
72974;SDS011;61166;54.228;37.632;2023-08-31T11:06:39;1188.00;;;405.75;;
72974;SDS011;61166;54.228;37.632;2023-08-31T11:09:10;1276.57;;;453.08;;
72974;SDS011;61166;54.228;37.632;2023-08-31T11:11:40;1279.13;;;452.70;;
72974;SDS011;61166;54.228;37.632;2023-08-31T11:14:08;1283.75;;;451.52;;
72974;SDS011;61166;54.228;37.632;2023-08-31T11:16:37;1278.57;;;454.03;;
72974;SDS011;61166;54.228;37.632;2023-08-31T11:19:04;1267.78;;;446.55;;
72974;SDS011;61166;54.228;37.632;2023-08-31T11:21:31;1279.10;;;452.95;;
72974;SDS011;61166;54.228;37.632;2023-08-31T11:23:58;1353.70;;;484.65;;
72974;SDS011;61166;54.228;37.632;2023-08-31T11:26:26;1281.75;;;455.83;;
72974;SDS011;61166;54.228;37.632;2023-08-31T11:28:55;1267.73;;;451.33;;
72974;SDS011;61166;54.228;37.632;2023-08-31T11:31:25;1238.95;;;435.35;;
72974;SDS011;61166;54.228;37.632;2023-08-31T11:33:51;1376.53;;;510.15;;
72974;SDS011;61166;54.228;37.632;2023-08-31T11:36:18;1329.70;;;490.25;;
72974;SDS011;61166;54.228;37.632;2023-08-31T11:38:44;1323.10;;;491.73;;
72974;SDS011;61166;54.228;37.632;2023-08-31T11:41:11;1274.43;;;462.90;;
72974;SDS011;61166;54.228;37.632;2023-08-31T11:43:38;1266.03;;;459.55;;
72974;SDS011;61166;54.228;37.632;2023-08-31T11:46:04;1363.35;;;511.02;;
72974;SDS011;61166;54.228;37.632;2023-08-31T11:48:31;1322.88;;;488.00;;
72974;SDS011;61166;54.228;37.632;2023-08-31T11:50:58;1317.72;;;486.70;;
72974;SDS011;61166;54.228;37.632;2023-08-31T11:53:25;1292.03;;;475.90;;
72974;SDS011;61166;54.228;37.632;2023-08-31T11:55:53;1273.32;;;459.73;;
72974;SDS011;61166;54.228;37.632;2023-08-31T11:58:20;1262.43;;;457.50;;
72974;SDS011;61166;54.228;37.632;2023-08-31T12:00:57;1261.28;;;457.75;;
72974;SDS011;61166;54.228;37.632;2023-08-31T12:03:23;1261.43;;;459.02;;
72974;SDS011;61166;54.228;37.632;2023-08-31T12:06:09;1266.60;;;457.30;;
72974;SDS011;61166;54.228;37.632;2023-08-31T12:08:36;1283.45;;;468.73;;
72974;SDS011;61166;54.228;37.632;2023-08-31T12:11:06;1274.10;;;463.05;;
72974;SDS011;61166;54.228;37.632;2023-08-31T12:13:32;1268.80;;;464.50;;
72974;SDS011;61166;54.228;37.632;2023-08-31T12:15:59;1270.15;;;466.45;;
72974;SDS011;61166;54.228;37.632;2023-08-31T12:18:25;1260.47;;;458.70;;
72974;SDS011;61166;54.228;37.632;2023-08-31T12:20:55;1252.38;;;453.98;;
72974;SDS011;61166;54.228;37.632;2023-08-31T12:23:21;1249.80;;;456.90;;
72974;SDS011;61166;54.228;37.632;2023-08-31T12:25:52;1242.72;;;447.80;;
72974;SDS011;61166;54.228;37.632;2023-08-31T12:28:19;1254.82;;;453.08;;
72974;SDS011;61166;54.228;37.632;2023-08-31T12:30:52;1292.73;;;475.37;;
72974;SDS011;61166;54.228;37.632;2023-08-31T12:33:19;1320.28;;;488.13;;
72974;SDS011;61166;54.228;37.632;2023-08-31T12:35:46;1295.15;;;474.45;;
72974;SDS011;61166;54.228;37.632;2023-08-31T12:38:13;1250.75;;;454.25;;
72974;SDS011;61166;54.228;37.632;2023-08-31T12:40:39;1250.30;;;454.90;;
72974;SDS011;61166;54.228;37.632;2023-08-31T12:43:06;1243.30;;;453.33;;
72974;SDS011;61166;54.228;37.632;2023-08-31T12:45:32;1241.97;;;448.00;;
72974;SDS011;61166;54.228;37.632;2023-08-31T12:47:59;1245.25;;;454.50;;
72974;SDS011;61166;54.228;37.632;2023-08-31T12:50:26;1535.30;;;578.85;;
72974;SDS011;61166;54.228;37.632;2023-08-31T12:52:52;1534.07;;;574.97;;
72974;SDS011;61166;54.228;37.632;2023-08-31T12:55:19;1501.27;;;562.20;;
72974;SDS011;61166;54.228;37.632;2023-08-31T12:57:45;1566.60;;;594.50;;
72974;SDS011;61166;54.228;37.632;2023-08-31T13:00:12;1277.32;;;465.17;;
72974;SDS011;61166;54.228;37.632;2023-08-31T13:02:39;1085.18;;;373.10;;
72974;SDS011;61166;54.228;37.632;2023-08-31T13:05:06;1035.78;;;356.98;;
72974;SDS011;61166;54.228;37.632;2023-08-31T13:07:32;1033.70;;;354.43;;
72974;SDS011;61166;54.228;37.632;2023-08-31T13:10:00;1029.13;;;352.27;;
72974;SDS011;61166;54.228;37.632;2023-08-31T13:12:29;1057.75;;;364.58;;
72974;SDS011;61166;54.228;37.632;2023-08-31T13:14:56;1042.25;;;355.88;;
72974;SDS011;61166;54.228;37.632;2023-08-31T13:17:23;988.33;;;338.90;;
72974;SDS011;61166;54.228;37.632;2023-08-31T13:19:49;1029.33;;;353.10;;
72974;SDS011;61166;54.228;37.632;2023-08-31T13:22:16;1004.15;;;343.33;;
72974;SDS011;61166;54.228;37.632;2023-08-31T13:24:42;932.65;;;322.52;;
72974;SDS011;61166;54.228;37.632;2023-08-31T13:27:09;950.63;;;326.88;;
72974;SDS011;61166;54.228;37.632;2023-08-31T13:29:35;968.47;;;330.98;;
72974;SDS011;61166;54.228;37.632;2023-08-31T13:32:01;952.47;;;328.07;;
72974;SDS011;61166;54.228;37.632;2023-08-31T13:34:28;940.28;;;322.55;;
72974;SDS011;61166;54.228;37.632;2023-08-31T13:36:54;923.05;;;318.63;;
72974;SDS011;61166;54.228;37.632;2023-08-31T13:39:21;903.38;;;310.83;;
72974;SDS011;61166;54.228;37.632;2023-08-31T13:41:48;927.83;;;318.75;;
72974;SDS011;61166;54.228;37.632;2023-08-31T13:44:14;930.97;;;319.03;;
72974;SDS011;61166;54.228;37.632;2023-08-31T13:46:41;929.05;;;320.65;;
72974;SDS011;61166;54.228;37.632;2023-08-31T13:49:08;1048.88;;;359.30;;
72974;SDS011;61166;54.228;37.632;2023-08-31T13:51:34;1071.00;;;364.38;;
72974;SDS011;61166;54.228;37.632;2023-08-31T13:54:02;1098.30;;;373.80;;
72974;SDS011;61166;54.228;37.632;2023-08-31T13:56:30;1055.40;;;360.90;;
72974;SDS011;61166;54.228;37.632;2023-08-31T13:58:57;1036.57;;;356.17;;